createdAt,value
2019-03-29T00:00:06.399Z,102901.96
2019-03-29T00:02:39.893Z,102901.46
2019-03-29T00:05:11.967Z,102900.72
2019-03-29T00:07:44.090Z,102893.55
2019-03-29T00:10:16.145Z,102897.98
2019-03-29T00:12:48.437Z,102893.16
2019-03-29T00:15:20.830Z,102890.36
2019-03-29T00:17:52.930Z,102896.55
2019-03-29T00:20:25.145Z,102889.47
2019-03-29T00:22:57.325Z,102891.74
2019-03-29T00:25:29.389Z,102892.42
2019-03-29T00:28:01.267Z,102892.90
2019-03-29T00:30:33.581Z,102893.58
2019-03-29T00:33:05.829Z,102897.03
2019-03-29T00:35:37.645Z,102886.19
2019-03-29T00:38:09.870Z,102892.76
2019-03-29T00:40:41.901Z,102882.69
2019-03-29T00:43:13.906Z,102882.69
2019-03-29T00:45:46.285Z,102883.44
2019-03-29T00:48:19.621Z,102880.38
2019-03-29T00:50:51.984Z,102886.39
2019-03-29T00:53:24.943Z,102876.69
2019-03-29T00:55:57.343Z,102872.31
2019-03-29T00:58:29.602Z,102873.63
2019-03-29T01:01:01.521Z,102867.81
2019-03-29T01:03:33.520Z,102868.84
2019-03-29T01:06:05.725Z,102866.28
2019-03-29T01:08:38.123Z,102871.29
2019-03-29T01:11:11.046Z,102872.38
2019-03-29T01:13:43.197Z,102870.48
2019-03-29T01:16:15.700Z,102869.52
2019-03-29T01:18:47.912Z,102857.81
2019-03-29T01:21:20.004Z,102855.95
2019-03-29T01:23:51.993Z,102861.33
2019-03-29T01:26:23.945Z,102860.77
2019-03-29T01:28:56.180Z,102864.29
2019-03-29T01:31:28.276Z,102856.56
2019-03-29T01:34:00.395Z,102860.14
2019-03-29T01:36:32.382Z,102860.71
2019-03-29T01:39:05.993Z,102857.59
2019-03-29T01:41:37.897Z,102863.55
2019-03-29T01:44:09.739Z,102862.28
2019-03-29T01:46:41.579Z,102861.80
2019-03-29T01:49:13.954Z,102859.23
2019-03-29T01:51:46.009Z,102868.61
2019-03-29T01:54:18.440Z,102865.47
2019-03-29T01:56:50.311Z,102864.44
2019-03-29T01:59:22.243Z,102872.75
2019-03-29T02:01:54.959Z,102870.15
2019-03-29T02:04:27.443Z,102864.09
2019-03-29T02:06:59.726Z,102864.42
2019-03-29T02:09:31.864Z,102858.16
2019-03-29T02:12:03.987Z,102859.93
2019-03-29T02:14:35.961Z,102853.04
2019-03-29T02:17:07.995Z,102845.27
2019-03-29T02:19:40.146Z,102849.87
2019-03-29T02:22:12.243Z,102835.67
2019-03-29T02:24:44.574Z,102845.66
2019-03-29T02:27:16.786Z,102845.66
2019-03-29T02:29:48.933Z,102844.34
2019-03-29T02:32:21.066Z,102837.25
2019-03-29T02:34:53.186Z,102843.18
2019-03-29T02:37:25.339Z,102839.20
2019-03-29T02:39:57.606Z,102836.23
2019-03-29T02:42:29.614Z,102831.00
2019-03-29T02:45:03.403Z,102828.89
2019-03-29T02:47:35.474Z,102822.91
2019-03-29T02:50:09.150Z,102815.80
2019-03-29T02:52:41.181Z,102817.12
2019-03-29T02:55:13.413Z,102815.71
2019-03-29T02:57:45.714Z,102818.55
2019-03-29T03:00:18.223Z,102820.47
2019-03-29T03:02:50.439Z,102813.56
2019-03-29T03:05:22.638Z,102814.17
2019-03-29T03:07:54.624Z,102816.08
2019-03-29T03:10:26.726Z,102813.91
2019-03-29T03:12:59.503Z,102826.91
2019-03-29T03:15:33.436Z,102827.00
2019-03-29T03:18:05.479Z,102823.89
2019-03-29T03:20:37.318Z,102825.14
2019-03-29T03:23:09.490Z,102820.52
2019-03-29T03:25:41.993Z,102822.78
2019-03-29T03:28:14.009Z,102830.28
2019-03-29T03:30:46.311Z,102827.66
2019-03-29T03:33:18.602Z,102824.63
2019-03-29T03:35:51.110Z,102826.70
2019-03-29T03:38:22.944Z,102828.12
2019-03-29T03:40:55.319Z,102825.45
2019-03-29T03:43:27.287Z,102822.88
2019-03-29T03:45:59.316Z,102822.07
2019-03-29T03:48:31.543Z,102829.98
2019-03-29T03:51:04.469Z,102829.52
2019-03-29T03:53:36.625Z,102831.70
2019-03-29T03:56:10.896Z,102828.62
2019-03-29T03:58:44.731Z,102828.67
2019-03-29T04:01:16.767Z,102830.13
2019-03-29T04:03:48.950Z,102825.40
2019-03-29T04:06:21.207Z,102826.71
2019-03-29T04:08:53.184Z,102827.20
2019-03-29T04:11:25.341Z,102818.98
2019-03-29T04:13:57.538Z,102817.13
2019-03-29T04:16:29.719Z,102818.98
2019-03-29T04:19:01.697Z,102825.59
2019-03-29T04:21:33.677Z,102826.95
2019-03-29T04:24:06.199Z,102823.52
2019-03-29T04:26:38.194Z,102817.43
2019-03-29T04:29:10.362Z,102821.00
2019-03-29T04:31:42.496Z,102817.57
2019-03-29T04:34:14.554Z,102826.39
2019-03-29T04:36:46.604Z,102825.53
2019-03-29T04:39:19.279Z,102825.53
2019-03-29T04:41:51.338Z,102830.51
2019-03-29T04:44:23.577Z,102826.14
2019-03-29T04:46:55.564Z,102829.34
2019-03-29T04:49:27.820Z,102831.88
2019-03-29T04:51:59.917Z,102829.03
2019-03-29T04:54:32.002Z,102830.34
2019-03-29T04:57:04.015Z,102835.12
2019-03-29T04:59:36.409Z,102836.08
2019-03-29T05:02:08.616Z,102833.92
2019-03-29T05:04:40.949Z,102848.48
2019-03-29T05:07:13.602Z,102839.41
2019-03-29T05:09:46.053Z,102838.59
2019-03-29T05:12:18.099Z,102844.23
2019-03-29T05:14:50.066Z,102838.59
2019-03-29T05:17:21.897Z,102841.27
2019-03-29T05:19:54.363Z,102841.81
2019-03-29T05:22:26.270Z,102848.88
2019-03-29T05:24:58.235Z,102849.73
2019-03-29T05:27:30.285Z,102851.44
2019-03-29T05:30:02.157Z,102853.70
2019-03-29T05:32:35.138Z,102845.48
2019-03-29T05:35:07.157Z,102837.05
2019-03-29T05:37:39.301Z,102842.80
2019-03-29T05:40:11.848Z,102839.22
2019-03-29T05:42:44.001Z,102850.39
2019-03-29T05:45:16.087Z,102842.03
2019-03-29T05:47:48.028Z,102843.75
2019-03-29T05:50:19.941Z,102844.34
2019-03-29T05:52:52.012Z,102837.92
2019-03-29T05:55:32.656Z,102834.94
2019-03-29T05:57:57.724Z,102837.52
2019-03-29T06:00:29.780Z,102835.84
2019-03-29T06:03:01.601Z,102837.16
2019-03-29T06:05:34.154Z,102836.89
2019-03-29T06:08:07.093Z,102833.45
2019-03-29T06:10:48.943Z,102834.05
2019-03-29T06:13:13.110Z,102835.95
2019-03-29T06:15:45.286Z,102845.72
2019-03-29T06:18:18.713Z,102831.75
2019-03-29T06:20:52.451Z,102833.11
2019-03-29T06:23:24.352Z,102827.99
2019-03-29T06:25:56.845Z,102827.22
2019-03-29T06:28:30.120Z,102826.86
2019-03-29T06:31:02.079Z,102825.95
2019-03-29T06:33:34.536Z,102815.14
2019-03-29T06:36:09.290Z,102812.74
2019-03-29T06:38:43.734Z,102807.59
2019-03-29T06:41:15.689Z,102805.09
2019-03-29T06:43:47.819Z,102804.36
2019-03-29T06:46:21.042Z,102801.42
2019-03-29T06:48:53.245Z,102799.02
2019-03-29T06:51:25.538Z,102797.55
2019-03-29T06:53:59.996Z,102800.92
2019-03-29T06:56:31.983Z,102797.02
2019-03-29T06:59:03.985Z,102798.25
2019-03-29T07:01:36.274Z,102801.01
2019-03-29T07:04:08.622Z,102800.27
2019-03-29T07:06:40.526Z,102801.80
2019-03-29T07:09:12.483Z,102796.38
2019-03-29T07:11:44.498Z,102797.16
2019-03-29T07:14:17.034Z,102801.34
2019-03-29T07:16:48.865Z,102805.20
2019-03-29T07:19:21.180Z,102798.30
2019-03-29T07:21:53.036Z,102798.34
2019-03-29T07:24:25.160Z,102791.59
2019-03-29T07:26:55.735Z,102798.13
2019-03-29T07:29:27.655Z,102796.52
2019-03-29T07:31:59.597Z,102801.36
2019-03-29T07:34:31.623Z,102797.41
2019-03-29T07:37:05.886Z,102799.33
2019-03-29T07:39:37.411Z,102800.05
2019-03-29T07:42:10.957Z,102805.55
2019-03-29T07:44:43.069Z,102795.22
2019-03-29T07:47:14.928Z,102788.34
2019-03-29T07:49:47.002Z,102791.30
2019-03-29T07:52:20.175Z,102793.59
2019-03-29T07:54:52.563Z,102796.30
2019-03-29T07:57:24.756Z,102793.03
2019-03-29T07:59:56.843Z,102790.21
2019-03-29T08:02:29.262Z,102782.39
2019-03-29T08:05:01.413Z,102789.27
2019-03-29T08:07:33.798Z,102773.47
2019-03-29T08:10:06.545Z,102774.92
2019-03-29T08:12:40.527Z,102780.22
2019-03-29T08:15:12.726Z,102785.07
2019-03-29T08:17:44.605Z,102782.09
2019-03-29T08:20:38.926Z,102786.24
2019-03-29T08:22:50.718Z,102792.64
2019-03-29T08:25:22.740Z,102789.45
2019-03-29T08:27:54.966Z,102802.02
2019-03-29T08:30:27.095Z,102800.05
2019-03-29T08:32:59.093Z,102799.67
2019-03-29T08:35:31.438Z,102800.46
2019-03-29T08:38:06.138Z,102801.85
2019-03-29T08:40:37.186Z,102804.30
2019-03-29T08:43:09.261Z,102795.66
2019-03-29T08:45:41.420Z,102800.70
2019-03-29T08:48:13.526Z,102810.13
2019-03-29T08:50:45.689Z,102795.45
2019-03-29T08:53:17.798Z,102803.63
2019-03-29T08:55:49.936Z,102798.78
2019-03-29T08:58:21.925Z,102802.77
2019-03-29T09:00:54.656Z,102802.90
2019-03-29T09:03:26.794Z,102797.04
2019-03-29T09:05:58.723Z,102791.09
2019-03-29T09:08:31.001Z,102792.00
2019-03-29T09:11:02.815Z,102795.78
2019-03-29T09:13:35.008Z,102796.54
2019-03-29T09:16:06.964Z,102800.94
2019-03-29T09:18:39.029Z,102801.91
2019-03-29T09:21:11.070Z,102795.78
2019-03-29T09:23:43.899Z,102798.89
2019-03-29T09:26:16.239Z,102795.81
2019-03-29T09:28:48.880Z,102802.95
2019-03-29T09:31:20.895Z,102809.08
2019-03-29T09:33:53.222Z,102798.72
2019-03-29T09:36:25.147Z,102801.94
2019-03-29T09:38:57.188Z,102807.07
2019-03-29T09:41:29.691Z,102797.66
2019-03-29T09:44:01.850Z,102798.52
2019-03-29T09:46:33.951Z,102795.66
2019-03-29T09:49:08.376Z,102793.64
2019-03-29T09:51:40.922Z,102782.80
2019-03-29T09:54:13.094Z,102785.35
2019-03-29T09:56:48.199Z,102779.25
2019-03-29T09:59:19.018Z,102774.00
2019-03-29T10:01:53.859Z,102777.98
2019-03-29T10:04:24.536Z,102769.98
2019-03-29T10:06:56.675Z,102760.00
2019-03-29T10:09:29.121Z,102758.67
2019-03-29T10:12:01.264Z,102752.50
2019-03-29T10:14:33.771Z,102759.50
2019-03-29T10:17:05.933Z,102764.08
2019-03-29T10:19:39.648Z,102757.84
2019-03-29T10:22:11.697Z,102754.04
2019-03-29T10:24:43.754Z,102756.66
2019-03-29T10:27:18.858Z,102753.88
2019-03-29T10:29:49.746Z,102747.65
2019-03-29T10:32:22.758Z,102752.30
2019-03-29T10:34:54.654Z,102751.56
2019-03-29T10:37:26.891Z,102752.41
2019-03-29T10:40:00.351Z,102743.43
2019-03-29T10:42:32.970Z,102745.30
2019-03-29T10:45:05.411Z,102739.16
2019-03-29T10:47:43.515Z,102736.75
2019-03-29T10:50:11.648Z,102736.34
2019-03-29T10:52:43.721Z,102729.19
2019-03-29T10:55:16.894Z,102729.48
2019-03-29T10:57:48.965Z,102734.63
2019-03-29T11:00:34.435Z,102726.86
2019-03-29T11:03:07.265Z,102727.12
2019-03-29T11:05:40.423Z,102729.14
2019-03-29T11:08:12.600Z,102725.57
2019-03-29T11:10:44.734Z,102726.45
2019-03-29T11:13:16.685Z,102710.56
2019-03-29T11:15:48.896Z,102719.27
2019-03-29T11:18:21.597Z,102708.31
2019-03-29T11:20:53.826Z,102710.16
2019-03-29T11:23:25.741Z,102711.87
2019-03-29T11:25:57.629Z,102713.55
2019-03-29T11:28:30.083Z,102710.89
2019-03-29T11:31:01.929Z,102706.18
2019-03-29T11:33:33.992Z,102705.23
2019-03-29T11:36:05.988Z,102704.44
2019-03-29T11:38:38.189Z,102700.06
2019-03-29T11:41:10.356Z,102695.90
2019-03-29T11:43:42.235Z,102700.23
2019-03-29T11:46:14.095Z,102699.83
2019-03-29T11:48:45.988Z,102702.97
2019-03-29T11:51:19.496Z,102701.55
2019-03-29T11:53:51.858Z,102701.04
2019-03-29T11:56:23.982Z,102695.92
2019-03-29T11:58:56.229Z,102698.14
2019-03-29T12:01:28.162Z,102694.66
2019-03-29T12:04:00.107Z,102689.70
2019-03-29T12:06:31.929Z,102685.83
2019-03-29T12:09:05.794Z,102686.77
2019-03-29T12:11:37.907Z,102682.00
2019-03-29T12:14:10.124Z,102681.25
2019-03-29T12:16:42.344Z,102674.95
2019-03-29T12:19:14.537Z,102678.61
2019-03-29T12:21:46.699Z,102671.61
2019-03-29T12:24:19.022Z,102667.28
2019-03-29T12:26:51.110Z,102666.06
2019-03-29T12:29:23.348Z,102668.17
2019-03-29T12:31:55.304Z,102660.45
2019-03-29T12:34:27.178Z,102662.59
2019-03-29T12:36:59.329Z,102656.09
2019-03-29T12:39:31.656Z,102648.61
2019-03-29T12:42:03.675Z,102653.98
2019-03-29T12:44:36.624Z,102651.80
2019-03-29T12:47:08.755Z,102649.77
2019-03-29T12:49:40.989Z,102644.50
2019-03-29T12:52:13.276Z,102653.22
2019-03-29T12:54:45.775Z,102651.05
2019-03-29T12:57:18.006Z,102648.70
2019-03-29T12:59:50.240Z,102648.30
2019-03-29T13:02:22.593Z,102645.30
2019-03-29T13:04:54.677Z,102638.16
2019-03-29T13:07:26.719Z,102636.83
2019-03-29T13:09:59.860Z,102640.83
2019-03-29T13:12:31.989Z,102631.59
2019-03-29T13:15:04.185Z,102634.25
2019-03-29T13:17:36.722Z,102629.77
2019-03-29T13:20:09.411Z,102626.02
2019-03-29T13:22:41.640Z,102628.33
2019-03-29T13:25:13.718Z,102623.50
2019-03-29T13:27:45.910Z,102627.52
2019-03-29T13:30:17.966Z,102626.23
2019-03-29T13:32:50.109Z,102628.91
2019-03-29T13:35:22.232Z,102619.67
2019-03-29T13:37:54.323Z,102620.57
2019-03-29T13:40:26.516Z,102614.61
2019-03-29T13:42:58.676Z,102614.30
2019-03-29T13:45:30.747Z,102615.08
2019-03-29T13:48:02.867Z,102611.83
2019-03-29T13:50:35.102Z,102611.30
2019-03-29T13:53:08.266Z,102608.70
2019-03-29T13:55:40.344Z,102604.39
2019-03-29T13:58:12.561Z,102602.72
2019-03-29T14:00:44.636Z,102602.34
2019-03-29T14:03:16.974Z,102596.64
2019-03-29T14:05:49.125Z,102597.39
2019-03-29T14:08:21.155Z,102590.84
2019-03-29T14:10:53.391Z,102591.04
2019-03-29T14:13:25.513Z,102580.88
2019-03-29T14:15:57.534Z,102579.84
2019-03-29T14:18:29.488Z,102581.08
2019-03-29T14:21:01.722Z,102577.17
2019-03-29T14:23:33.820Z,102570.11
2019-03-29T14:26:05.904Z,102573.47
2019-03-29T14:28:38.039Z,102577.87
2019-03-29T14:31:10.379Z,102578.75
2019-03-29T14:33:42.769Z,102569.98
2019-03-29T14:36:14.856Z,102572.31
2019-03-29T14:38:47.063Z,102567.44
2019-03-29T14:41:19.208Z,102572.22
2019-03-29T14:43:51.183Z,102564.78
2019-03-29T14:46:23.344Z,102560.44
2019-03-29T14:48:55.602Z,102559.14
2019-03-29T14:51:27.433Z,102549.89
2019-03-29T14:53:59.414Z,102550.67
2019-03-29T14:56:31.329Z,102548.48
2019-03-29T14:59:03.752Z,102542.36
2019-03-29T15:01:35.928Z,102550.70
2019-03-29T15:04:08.069Z,102543.58
2019-03-29T15:06:39.926Z,102547.13
2019-03-29T15:09:11.975Z,102540.61
2019-03-29T15:11:43.916Z,102541.18
2019-03-29T15:14:15.993Z,102535.85
2019-03-29T15:16:48.091Z,102530.21
2019-03-29T15:19:20.008Z,102529.16
2019-03-29T15:21:52.073Z,102530.34
2019-03-29T15:24:24.550Z,102527.66
2019-03-29T15:26:56.891Z,102516.67
2019-03-29T15:29:28.921Z,102515.85
2019-03-29T15:32:01.132Z,102511.92
2019-03-29T15:34:33.171Z,102510.06
2019-03-29T15:37:05.146Z,102511.41
2019-03-29T15:39:37.305Z,102511.86
2019-03-29T15:42:09.238Z,102505.21
2019-03-29T15:44:41.745Z,102500.39
2019-03-29T15:47:14.136Z,102496.43
2019-03-29T15:49:55.930Z,102488.10
2019-03-29T15:52:20.195Z,102488.00
2019-03-29T15:54:52.123Z,102480.52
2019-03-29T15:57:24.164Z,102483.14
2019-03-29T15:59:56.297Z,102482.66
2019-03-29T16:02:29.638Z,102487.50
2019-03-29T16:05:01.596Z,102479.09
2019-03-29T16:07:35.080Z,102484.71
2019-03-29T16:10:08.596Z,102483.36
2019-03-29T16:12:40.702Z,102478.50
2019-03-29T16:15:12.883Z,102477.17
2019-03-29T16:17:45.051Z,102477.17
2019-03-29T16:20:17.197Z,102478.00
2019-03-29T16:22:49.688Z,102475.33
2019-03-29T16:25:21.897Z,102480.13
2019-03-29T16:27:53.876Z,102471.77
2019-03-29T16:30:26.390Z,102460.74
2019-03-29T16:32:58.557Z,102456.75
2019-03-29T16:35:30.634Z,102462.37
2019-03-29T16:38:02.716Z,102462.77
2019-03-29T16:40:34.896Z,102463.66
2019-03-29T16:43:06.997Z,102462.33
2019-03-29T16:45:47.940Z,102457.39
2019-03-29T16:48:12.960Z,102453.84
2019-03-29T16:50:43.557Z,102455.95
2019-03-29T16:53:15.787Z,102452.38
2019-03-29T16:55:48.176Z,102450.99
2019-03-29T16:58:20.610Z,102450.08
2019-03-29T17:00:52.871Z,102446.06
2019-03-29T17:03:25.117Z,102443.37
2019-03-29T17:05:57.342Z,102440.23
2019-03-29T17:08:29.568Z,102440.17
2019-03-29T17:11:01.587Z,102437.48
2019-03-29T17:13:33.762Z,102431.36
2019-03-29T17:16:06.226Z,102438.34
2019-03-29T17:18:40.322Z,102436.11
2019-03-29T17:21:12.889Z,102426.80
2019-03-29T17:23:45.563Z,102421.95
2019-03-29T17:26:18.723Z,102422.76
2019-03-29T17:28:51.152Z,102420.48
2019-03-29T17:31:23.673Z,102432.66
2019-03-29T17:33:57.234Z,102422.47
2019-03-29T17:36:29.339Z,102430.72
2019-03-29T17:39:01.829Z,102431.62
2019-03-29T17:41:36.326Z,102429.36
2019-03-29T17:44:08.562Z,102432.40
2019-03-29T17:46:40.758Z,102435.03
2019-03-29T17:49:12.806Z,102438.52
2019-03-29T17:51:47.302Z,102441.14
2019-03-29T17:54:19.206Z,102441.20
2019-03-29T17:56:51.231Z,102440.75
2019-03-29T17:59:23.477Z,102439.80
2019-03-29T18:02:08.834Z,102442.02
2019-03-29T18:04:29.904Z,102441.55
2019-03-29T18:07:02.213Z,102449.92
2019-03-29T18:09:34.591Z,102452.56
2019-03-29T18:12:07.089Z,102449.03
2019-03-29T18:14:39.449Z,102449.84
2019-03-29T18:17:11.542Z,102453.37
2019-03-29T18:19:43.859Z,102446.80
2019-03-29T18:22:16.077Z,102452.48
2019-03-29T18:24:48.430Z,102461.28
2019-03-29T18:27:20.700Z,102460.81
2019-03-29T18:29:53.738Z,102460.33
2019-03-29T18:32:26.039Z,102455.94
2019-03-29T18:34:58.566Z,102459.83
2019-03-29T18:37:30.828Z,102460.73
2019-03-29T18:40:05.486Z,102458.07
2019-03-29T18:42:37.544Z,102457.59
2019-03-29T18:45:10.032Z,102460.70
2019-03-29T18:47:42.006Z,102459.39
2019-03-29T18:50:14.244Z,102458.47
2019-03-29T18:52:47.411Z,102458.89
2019-03-29T18:55:19.668Z,102454.52
2019-03-29T18:57:51.913Z,102452.28
2019-03-29T19:00:32.207Z,102450.13
2019-03-29T19:03:04.580Z,102457.11
2019-03-29T19:05:36.633Z,102454.91
2019-03-29T19:08:08.904Z,102451.38
2019-03-29T19:10:40.906Z,102453.60
2019-03-29T19:13:13.185Z,102449.20
2019-03-29T19:15:45.432Z,102446.97
2019-03-29T19:18:17.424Z,102445.16
2019-03-29T19:20:49.514Z,102449.10
2019-03-29T19:23:21.703Z,102448.62
2019-03-29T19:25:54.089Z,102452.95
2019-03-29T19:28:26.046Z,102448.16
2019-03-29T19:30:58.129Z,102447.28
2019-03-29T19:33:30.563Z,102445.05
2019-03-29T19:36:02.773Z,102440.26
2019-03-29T19:38:35.035Z,102449.48
2019-03-29T19:41:06.998Z,102452.11
2019-03-29T19:43:39.523Z,102457.37
2019-03-29T19:46:11.373Z,102449.88
2019-03-29T19:48:43.482Z,102453.37
2019-03-29T19:51:15.461Z,102447.69
2019-03-29T19:53:47.600Z,102450.80
2019-03-29T19:56:20.376Z,102449.48
2019-03-29T19:58:52.654Z,102451.63
2019-03-29T20:01:24.949Z,102442.83
2019-03-29T20:03:57.134Z,102442.39
2019-03-29T20:06:29.704Z,102445.03
2019-03-29T20:09:01.782Z,102444.13
2019-03-29T20:11:34.387Z,102441.97
2019-03-29T20:14:06.536Z,102439.34
2019-03-29T20:16:39.620Z,102438.86
2019-03-29T20:19:11.744Z,102439.73
2019-03-29T20:21:44.035Z,102436.63
2019-03-29T20:24:16.229Z,102439.23
2019-03-29T20:26:48.733Z,102438.76
2019-03-29T20:29:20.788Z,102437.44
2019-03-29T20:31:52.922Z,102430.83
2019-03-29T20:34:24.967Z,102432.63
2019-03-29T20:36:56.883Z,102427.28
2019-03-29T20:39:28.926Z,102427.28
2019-03-29T20:42:01.471Z,102426.87
2019-03-29T20:44:33.672Z,102428.67
2019-03-29T20:47:06.068Z,102416.32
2019-03-29T20:49:38.158Z,102420.31
2019-03-29T20:52:10.490Z,102412.87
2019-03-29T20:54:43.220Z,102411.50
2019-03-29T20:57:15.871Z,102415.84
2019-03-29T20:59:49.610Z,102424.20
2019-03-29T21:02:24.148Z,102417.12
2019-03-29T21:04:56.324Z,102417.12
2019-03-29T21:07:28.387Z,102416.62
2019-03-29T21:10:00.772Z,102416.59
2019-03-29T21:12:33.133Z,102406.03
2019-03-29T21:15:05.812Z,102400.69
2019-03-29T21:17:38.234Z,102394.45
2019-03-29T21:20:11.110Z,102398.01
2019-03-29T21:22:43.277Z,102396.70
2019-03-29T21:25:15.352Z,102391.34
2019-03-29T21:27:47.512Z,102389.59
2019-03-29T21:30:20.025Z,102389.59
2019-03-29T21:32:52.528Z,102398.69
2019-03-29T21:35:24.459Z,102395.25
2019-03-29T21:37:56.330Z,102392.16
2019-03-29T21:40:28.424Z,102384.23
2019-03-29T21:43:02.009Z,102386.88
2019-03-29T21:45:34.454Z,102383.31
2019-03-29T21:48:27.253Z,102382.81
2019-03-29T21:50:40.788Z,102381.08
2019-03-29T21:53:13.535Z,102379.33
2019-03-29T21:55:46.566Z,102376.21
2019-03-29T21:58:18.732Z,102373.53
2019-03-29T22:00:50.600Z,102369.98
2019-03-29T22:03:22.839Z,102372.22
2019-03-29T22:05:54.821Z,102375.24
2019-03-29T22:08:26.838Z,102368.19
2019-03-29T22:10:59.428Z,102373.45
2019-03-29T22:13:31.567Z,102375.64
2019-03-29T22:16:03.807Z,102370.31
2019-03-29T22:18:38.153Z,102369.88
2019-03-29T22:21:10.066Z,102376.45
2019-03-29T22:23:42.381Z,102365.51
2019-03-29T22:26:14.599Z,102373.40
2019-03-29T22:28:47.170Z,102375.11
2019-03-29T22:31:19.331Z,102374.63
2019-03-29T22:33:51.291Z,102373.32
2019-03-29T22:36:23.619Z,102372.87
2019-03-29T22:38:55.876Z,102372.00
2019-03-29T22:41:27.834Z,102369.77
2019-03-29T22:43:59.994Z,102367.59
2019-03-29T22:46:32.131Z,102359.63
2019-03-29T22:49:04.426Z,102364.90
2019-03-29T22:51:36.493Z,102367.90
2019-03-29T22:54:08.895Z,102362.66
2019-03-29T22:56:41.603Z,102359.59
2019-03-29T22:59:13.683Z,102356.95
2019-03-29T23:01:47.666Z,102350.81
2019-03-29T23:04:19.725Z,102351.67
2019-03-29T23:06:51.829Z,102347.24
2019-03-29T23:09:23.783Z,102350.34
2019-03-29T23:11:57.418Z,102350.77
2019-03-29T23:14:29.356Z,102350.74
2019-03-29T23:17:01.481Z,102349.83
2019-03-29T23:19:33.618Z,102350.24
2019-03-29T23:22:05.757Z,102344.50
2019-03-29T23:24:37.683Z,102339.22
2019-03-29T23:27:10.962Z,102345.77
2019-03-29T23:29:43.771Z,102343.98
2019-03-29T23:32:15.984Z,102345.24
2019-03-29T23:34:48.240Z,102337.23
2019-03-29T23:37:21.118Z,102340.66
2019-03-29T23:39:53.339Z,102333.97
2019-03-29T23:42:28.589Z,102335.67
2019-03-29T23:45:00.856Z,102327.59
2019-03-29T23:47:32.886Z,102333.55
2019-03-29T23:50:05.496Z,102327.23
2019-03-29T23:52:37.765Z,102323.17
2019-03-29T23:55:10.279Z,102320.84
2019-03-29T23:57:42.964Z,102321.58
